sensor_id;sensor_type;location;lat;lon;timestamp;P1;durP1;ratioP1;P2;durP2;ratioP2
71183;SDS011;58887;51.980;4.464;2022-07-18T00:00:55;8.63;;;8.41;;
71183;SDS011;58887;51.980;4.464;2022-07-18T00:03:20;8.90;;;8.62;;
71183;SDS011;58887;51.980;4.464;2022-07-18T00:05:46;8.71;;;8.46;;
71183;SDS011;58887;51.980;4.464;2022-07-18T00:08:11;8.39;;;8.15;;
71183;SDS011;58887;51.980;4.464;2022-07-18T00:10:37;8.95;;;8.65;;
71183;SDS011;58887;51.980;4.464;2022-07-18T00:13:02;8.89;;;8.63;;
71183;SDS011;58887;51.980;4.464;2022-07-18T00:15:28;8.58;;;8.42;;
71183;SDS011;58887;51.980;4.464;2022-07-18T00:17:53;8.78;;;8.70;;
71183;SDS011;58887;51.980;4.464;2022-07-18T00:20:19;8.53;;;8.43;;
71183;SDS011;58887;51.980;4.464;2022-07-18T00:22:44;8.87;;;8.85;;
71183;SDS011;58887;51.980;4.464;2022-07-18T00:25:10;8.65;;;8.52;;
71183;SDS011;58887;51.980;4.464;2022-07-18T00:27:35;9.23;;;8.95;;
71183;SDS011;58887;51.980;4.464;2022-07-18T00:30:01;8.88;;;8.62;;
71183;SDS011;58887;51.980;4.464;2022-07-18T00:32:26;8.90;;;8.69;;
71183;SDS011;58887;51.980;4.464;2022-07-18T00:34:52;9.18;;;8.96;;
71183;SDS011;58887;51.980;4.464;2022-07-18T00:37:17;9.13;;;8.85;;
71183;SDS011;58887;51.980;4.464;2022-07-18T00:39:43;9.01;;;8.82;;
71183;SDS011;58887;51.980;4.464;2022-07-18T00:42:09;9.03;;;8.80;;
71183;SDS011;58887;51.980;4.464;2022-07-18T00:44:34;8.92;;;8.73;;
71183;SDS011;58887;51.980;4.464;2022-07-18T00:47:00;9.11;;;8.98;;
71183;SDS011;58887;51.980;4.464;2022-07-18T00:49:27;8.53;;;8.47;;
71183;SDS011;58887;51.980;4.464;2022-07-18T00:51:54;9.22;;;9.04;;
71183;SDS011;58887;51.980;4.464;2022-07-18T00:54:19;8.78;;;8.71;;
71183;SDS011;58887;51.980;4.464;2022-07-18T00:56:46;8.51;;;8.35;;
71183;SDS011;58887;51.980;4.464;2022-07-18T00:59:14;9.51;;;9.18;;
71183;SDS011;58887;51.980;4.464;2022-07-18T01:01:40;8.89;;;8.71;;
71183;SDS011;58887;51.980;4.464;2022-07-18T01:04:16;8.54;;;8.51;;
71183;SDS011;58887;51.980;4.464;2022-07-18T01:06:44;8.84;;;8.81;;
71183;SDS011;58887;51.980;4.464;2022-07-18T01:09:11;9.13;;;9.02;;
71183;SDS011;58887;51.980;4.464;2022-07-18T01:11:38;9.19;;;9.06;;
71183;SDS011;58887;51.980;4.464;2022-07-18T01:14:04;8.63;;;8.49;;
71183;SDS011;58887;51.980;4.464;2022-07-18T01:16:31;9.19;;;8.91;;
71183;SDS011;58887;51.980;4.464;2022-07-18T01:18:57;8.80;;;8.62;;
71183;SDS011;58887;51.980;4.464;2022-07-18T01:21:23;8.81;;;8.70;;
71183;SDS011;58887;51.980;4.464;2022-07-18T01:23:49;9.30;;;9.12;;
71183;SDS011;58887;51.980;4.464;2022-07-18T01:26:15;9.42;;;9.23;;
71183;SDS011;58887;51.980;4.464;2022-07-18T01:28:42;8.91;;;8.72;;
71183;SDS011;58887;51.980;4.464;2022-07-18T01:31:08;8.58;;;8.39;;
71183;SDS011;58887;51.980;4.464;2022-07-18T01:33:35;8.72;;;8.53;;
71183;SDS011;58887;51.980;4.464;2022-07-18T01:36:01;8.70;;;8.48;;
71183;SDS011;58887;51.980;4.464;2022-07-18T01:38:29;8.57;;;8.41;;
71183;SDS011;58887;51.980;4.464;2022-07-18T01:40:56;8.47;;;8.38;;
71183;SDS011;58887;51.980;4.464;2022-07-18T01:43:22;8.29;;;8.29;;
71183;SDS011;58887;51.980;4.464;2022-07-18T01:45:49;8.37;;;8.27;;
71183;SDS011;58887;51.980;4.464;2022-07-18T01:48:15;8.29;;;8.18;;
71183;SDS011;58887;51.980;4.464;2022-07-18T01:50:40;8.37;;;8.30;;
71183;SDS011;58887;51.980;4.464;2022-07-18T01:53:06;8.51;;;8.27;;
71183;SDS011;58887;51.980;4.464;2022-07-18T01:55:32;8.06;;;7.97;;
71183;SDS011;58887;51.980;4.464;2022-07-18T01:57:57;7.96;;;7.83;;
71183;SDS011;58887;51.980;4.464;2022-07-18T02:00:23;7.68;;;7.54;;
71183;SDS011;58887;51.980;4.464;2022-07-18T02:02:48;7.76;;;7.71;;
71183;SDS011;58887;51.980;4.464;2022-07-18T02:05:14;7.70;;;7.64;;
71183;SDS011;58887;51.980;4.464;2022-07-18T02:07:40;7.82;;;7.75;;
71183;SDS011;58887;51.980;4.464;2022-07-18T02:10:08;7.88;;;7.72;;
71183;SDS011;58887;51.980;4.464;2022-07-18T02:12:36;7.84;;;7.67;;
71183;SDS011;58887;51.980;4.464;2022-07-18T02:15:03;7.72;;;7.63;;
71183;SDS011;58887;51.980;4.464;2022-07-18T02:17:30;7.39;;;7.36;;
71183;SDS011;58887;51.980;4.464;2022-07-18T02:19:56;7.29;;;7.26;;
71183;SDS011;58887;51.980;4.464;2022-07-18T02:22:21;7.68;;;7.59;;
71183;SDS011;58887;51.980;4.464;2022-07-18T02:24:48;7.68;;;7.64;;
71183;SDS011;58887;51.980;4.464;2022-07-18T02:27:13;7.60;;;7.57;;
71183;SDS011;58887;51.980;4.464;2022-07-18T02:29:40;7.85;;;7.79;;
71183;SDS011;58887;51.980;4.464;2022-07-18T02:32:06;7.91;;;7.90;;
71183;SDS011;58887;51.980;4.464;2022-07-18T02:34:33;7.68;;;7.64;;
71183;SDS011;58887;51.980;4.464;2022-07-18T02:36:59;7.81;;;7.81;;
71183;SDS011;58887;51.980;4.464;2022-07-18T02:39:24;7.97;;;7.93;;
71183;SDS011;58887;51.980;4.464;2022-07-18T02:41:50;8.02;;;7.91;;
71183;SDS011;58887;51.980;4.464;2022-07-18T02:44:17;7.57;;;7.53;;
71183;SDS011;58887;51.980;4.464;2022-07-18T02:46:42;7.59;;;7.43;;
71183;SDS011;58887;51.980;4.464;2022-07-18T02:49:08;7.37;;;7.26;;
71183;SDS011;58887;51.980;4.464;2022-07-18T02:51:33;7.66;;;7.52;;
71183;SDS011;58887;51.980;4.464;2022-07-18T02:53:59;7.57;;;7.40;;
71183;SDS011;58887;51.980;4.464;2022-07-18T02:56:24;7.09;;;6.99;;
71183;SDS011;58887;51.980;4.464;2022-07-18T02:58:50;6.70;;;6.62;;
71183;SDS011;58887;51.980;4.464;2022-07-18T03:01:15;7.00;;;6.86;;
71183;SDS011;58887;51.980;4.464;2022-07-18T03:03:41;6.72;;;6.66;;
71183;SDS011;58887;51.980;4.464;2022-07-18T03:06:07;6.60;;;6.49;;
71183;SDS011;58887;51.980;4.464;2022-07-18T03:08:33;6.57;;;6.49;;
71183;SDS011;58887;51.980;4.464;2022-07-18T03:10:58;6.32;;;6.21;;
71183;SDS011;58887;51.980;4.464;2022-07-18T03:13:24;6.16;;;6.08;;
71183;SDS011;58887;51.980;4.464;2022-07-18T03:15:49;6.37;;;6.34;;
71183;SDS011;58887;51.980;4.464;2022-07-18T03:18:14;5.93;;;5.93;;
71183;SDS011;58887;51.980;4.464;2022-07-18T03:20:40;5.96;;;5.96;;
71183;SDS011;58887;51.980;4.464;2022-07-18T03:23:06;6.06;;;6.05;;
71183;SDS011;58887;51.980;4.464;2022-07-18T03:25:33;6.09;;;6.05;;
71183;SDS011;58887;51.980;4.464;2022-07-18T03:27:59;6.05;;;6.04;;
71183;SDS011;58887;51.980;4.464;2022-07-18T03:30:24;5.98;;;5.90;;
71183;SDS011;58887;51.980;4.464;2022-07-18T03:32:50;6.18;;;6.02;;
71183;SDS011;58887;51.980;4.464;2022-07-18T03:35:15;5.95;;;5.84;;
71183;SDS011;58887;51.980;4.464;2022-07-18T03:37:41;5.85;;;5.77;;
71183;SDS011;58887;51.980;4.464;2022-07-18T03:40:07;6.04;;;6.02;;
71183;SDS011;58887;51.980;4.464;2022-07-18T03:42:36;6.14;;;6.14;;
71183;SDS011;58887;51.980;4.464;2022-07-18T03:45:02;5.91;;;5.91;;
71183;SDS011;58887;51.980;4.464;2022-07-18T03:47:29;6.00;;;5.98;;
71183;SDS011;58887;51.980;4.464;2022-07-18T03:49:54;5.81;;;5.80;;
71183;SDS011;58887;51.980;4.464;2022-07-18T03:52:20;6.23;;;6.08;;
71183;SDS011;58887;51.980;4.464;2022-07-18T03:54:45;6.06;;;6.01;;
71183;SDS011;58887;51.980;4.464;2022-07-18T03:57:11;5.99;;;5.95;;
71183;SDS011;58887;51.980;4.464;2022-07-18T03:59:36;5.69;;;5.68;;
71183;SDS011;58887;51.980;4.464;2022-07-18T04:02:02;5.41;;;5.41;;
71183;SDS011;58887;51.980;4.464;2022-07-18T04:04:27;5.79;;;5.79;;
71183;SDS011;58887;51.980;4.464;2022-07-18T04:06:53;5.92;;;5.92;;
71183;SDS011;58887;51.980;4.464;2022-07-18T04:09:19;5.49;;;5.40;;
71183;SDS011;58887;51.980;4.464;2022-07-18T04:11:44;5.59;;;5.57;;
71183;SDS011;58887;51.980;4.464;2022-07-18T04:14:09;5.79;;;5.71;;
71183;SDS011;58887;51.980;4.464;2022-07-18T04:16:35;5.69;;;5.56;;
71183;SDS011;58887;51.980;4.464;2022-07-18T04:19:00;5.59;;;5.54;;
71183;SDS011;58887;51.980;4.464;2022-07-18T04:21:26;5.70;;;5.60;;
71183;SDS011;58887;51.980;4.464;2022-07-18T04:23:51;5.49;;;5.45;;
71183;SDS011;58887;51.980;4.464;2022-07-18T04:26:18;5.51;;;5.44;;
71183;SDS011;58887;51.980;4.464;2022-07-18T04:28:43;5.42;;;5.34;;
71183;SDS011;58887;51.980;4.464;2022-07-18T04:31:09;5.34;;;5.22;;
71183;SDS011;58887;51.980;4.464;2022-07-18T04:33:34;5.22;;;5.12;;
71183;SDS011;58887;51.980;4.464;2022-07-18T04:36:00;5.18;;;5.14;;
71183;SDS011;58887;51.980;4.464;2022-07-18T04:38:25;5.55;;;5.54;;
71183;SDS011;58887;51.980;4.464;2022-07-18T04:40:51;5.55;;;5.51;;
71183;SDS011;58887;51.980;4.464;2022-07-18T04:43:16;5.47;;;5.45;;
71183;SDS011;58887;51.980;4.464;2022-07-18T04:45:42;5.83;;;5.82;;
71183;SDS011;58887;51.980;4.464;2022-07-18T04:48:07;5.50;;;5.50;;
71183;SDS011;58887;51.980;4.464;2022-07-18T04:50:33;5.41;;;5.40;;
71183;SDS011;58887;51.980;4.464;2022-07-18T04:52:58;5.50;;;5.50;;
71183;SDS011;58887;51.980;4.464;2022-07-18T04:55:24;5.49;;;5.49;;
71183;SDS011;58887;51.980;4.464;2022-07-18T04:57:51;5.73;;;5.70;;
71183;SDS011;58887;51.980;4.464;2022-07-18T05:00:21;5.61;;;5.60;;
71183;SDS011;58887;51.980;4.464;2022-07-18T05:02:49;5.70;;;5.68;;
71183;SDS011;58887;51.980;4.464;2022-07-18T05:05:17;5.37;;;5.37;;
71183;SDS011;58887;51.980;4.464;2022-07-18T05:07:44;5.65;;;5.65;;
71183;SDS011;58887;51.980;4.464;2022-07-18T05:10:11;5.94;;;5.93;;
71183;SDS011;58887;51.980;4.464;2022-07-18T05:12:39;5.93;;;5.92;;
71183;SDS011;58887;51.980;4.464;2022-07-18T05:15:08;5.65;;;5.63;;
71183;SDS011;58887;51.980;4.464;2022-07-18T05:17:35;6.01;;;5.97;;
71183;SDS011;58887;51.980;4.464;2022-07-18T05:20:03;5.89;;;5.87;;
71183;SDS011;58887;51.980;4.464;2022-07-18T05:22:29;6.07;;;6.02;;
71183;SDS011;58887;51.980;4.464;2022-07-18T05:24:56;6.53;;;6.46;;
71183;SDS011;58887;51.980;4.464;2022-07-18T05:27:22;6.51;;;6.47;;
71183;SDS011;58887;51.980;4.464;2022-07-18T05:29:47;6.97;;;6.90;;
71183;SDS011;58887;51.980;4.464;2022-07-18T05:32:13;7.49;;;7.25;;
71183;SDS011;58887;51.980;4.464;2022-07-18T05:34:38;7.40;;;7.21;;
71183;SDS011;58887;51.980;4.464;2022-07-18T05:37:04;6.73;;;6.65;;
71183;SDS011;58887;51.980;4.464;2022-07-18T05:39:29;6.39;;;6.33;;
71183;SDS011;58887;51.980;4.464;2022-07-18T05:41:55;6.37;;;6.31;;
71183;SDS011;58887;51.980;4.464;2022-07-18T05:44:20;6.58;;;6.57;;
71183;SDS011;58887;51.980;4.464;2022-07-18T05:46:46;6.82;;;6.81;;
71183;SDS011;58887;51.980;4.464;2022-07-18T05:49:12;6.85;;;6.79;;
71183;SDS011;58887;51.980;4.464;2022-07-18T05:51:38;7.47;;;7.33;;
71183;SDS011;58887;51.980;4.464;2022-07-18T05:54:04;6.63;;;6.53;;
71183;SDS011;58887;51.980;4.464;2022-07-18T05:56:29;6.60;;;6.54;;
71183;SDS011;58887;51.980;4.464;2022-07-18T05:58:55;6.18;;;6.15;;
71183;SDS011;58887;51.980;4.464;2022-07-18T06:01:20;5.87;;;5.85;;
71183;SDS011;58887;51.980;4.464;2022-07-18T06:03:46;6.20;;;6.19;;
71183;SDS011;58887;51.980;4.464;2022-07-18T06:06:13;5.75;;;5.74;;
71183;SDS011;58887;51.980;4.464;2022-07-18T06:08:39;5.09;;;5.06;;
71183;SDS011;58887;51.980;4.464;2022-07-18T06:11:05;4.88;;;4.87;;
71183;SDS011;58887;51.980;4.464;2022-07-18T06:13:33;4.42;;;4.41;;
71183;SDS011;58887;51.980;4.464;2022-07-18T06:15:59;4.37;;;4.37;;
71183;SDS011;58887;51.980;4.464;2022-07-18T06:18:24;4.25;;;4.24;;
71183;SDS011;58887;51.980;4.464;2022-07-18T06:20:50;4.21;;;4.21;;
71183;SDS011;58887;51.980;4.464;2022-07-18T06:23:16;4.15;;;4.14;;
71183;SDS011;58887;51.980;4.464;2022-07-18T06:25:42;3.98;;;3.97;;
71183;SDS011;58887;51.980;4.464;2022-07-18T06:28:16;3.70;;;3.69;;
71183;SDS011;58887;51.980;4.464;2022-07-18T06:30:42;3.56;;;3.56;;
71183;SDS011;58887;51.980;4.464;2022-07-18T06:33:07;3.46;;;3.46;;
71183;SDS011;58887;51.980;4.464;2022-07-18T06:35:33;3.51;;;3.51;;
71183;SDS011;58887;51.980;4.464;2022-07-18T06:37:59;3.50;;;3.50;;
71183;SDS011;58887;51.980;4.464;2022-07-18T06:40:25;3.60;;;3.60;;
71183;SDS011;58887;51.980;4.464;2022-07-18T06:42:51;3.25;;;3.25;;
71183;SDS011;58887;51.980;4.464;2022-07-18T06:45:17;3.32;;;3.32;;
71183;SDS011;58887;51.980;4.464;2022-07-18T06:47:43;3.37;;;3.36;;
71183;SDS011;58887;51.980;4.464;2022-07-18T06:50:10;3.09;;;3.07;;
71183;SDS011;58887;51.980;4.464;2022-07-18T06:52:38;3.17;;;3.17;;
71183;SDS011;58887;51.980;4.464;2022-07-18T06:55:05;3.30;;;3.29;;
71183;SDS011;58887;51.980;4.464;2022-07-18T06:57:32;3.38;;;3.38;;
71183;SDS011;58887;51.980;4.464;2022-07-18T06:59:58;3.21;;;3.20;;
71183;SDS011;58887;51.980;4.464;2022-07-18T07:02:23;2.97;;;2.94;;
71183;SDS011;58887;51.980;4.464;2022-07-18T07:04:49;3.38;;;3.35;;
71183;SDS011;58887;51.980;4.464;2022-07-18T07:07:14;3.31;;;3.29;;
71183;SDS011;58887;51.980;4.464;2022-07-18T07:09:40;3.27;;;3.27;;
71183;SDS011;58887;51.980;4.464;2022-07-18T07:12:06;2.98;;;2.98;;
71183;SDS011;58887;51.980;4.464;2022-07-18T07:14:31;3.27;;;3.25;;
71183;SDS011;58887;51.980;4.464;2022-07-18T07:16:57;3.17;;;3.16;;
71183;SDS011;58887;51.980;4.464;2022-07-18T07:19:22;3.35;;;3.33;;
71183;SDS011;58887;51.980;4.464;2022-07-18T07:21:48;3.27;;;3.25;;
71183;SDS011;58887;51.980;4.464;2022-07-18T07:24:13;3.73;;;3.73;;
71183;SDS011;58887;51.980;4.464;2022-07-18T07:26:39;3.40;;;3.40;;
71183;SDS011;58887;51.980;4.464;2022-07-18T07:29:04;3.71;;;3.71;;
71183;SDS011;58887;51.980;4.464;2022-07-18T07:31:30;3.52;;;3.52;;
71183;SDS011;58887;51.980;4.464;2022-07-18T07:33:55;3.75;;;3.75;;
71183;SDS011;58887;51.980;4.464;2022-07-18T07:36:21;3.95;;;3.95;;
71183;SDS011;58887;51.980;4.464;2022-07-18T07:38:46;3.69;;;3.69;;
71183;SDS011;58887;51.980;4.464;2022-07-18T07:41:12;3.79;;;3.79;;
71183;SDS011;58887;51.980;4.464;2022-07-18T07:43:38;3.87;;;3.86;;
71183;SDS011;58887;51.980;4.464;2022-07-18T07:46:04;3.81;;;3.81;;
71183;SDS011;58887;51.980;4.464;2022-07-18T07:48:29;3.93;;;3.93;;
71183;SDS011;58887;51.980;4.464;2022-07-18T07:50:55;3.92;;;3.92;;
71183;SDS011;58887;51.980;4.464;2022-07-18T07:53:21;4.79;;;4.79;;
71183;SDS011;58887;51.980;4.464;2022-07-18T07:55:47;4.73;;;4.73;;
71183;SDS011;58887;51.980;4.464;2022-07-18T07:58:12;4.68;;;4.68;;
71183;SDS011;58887;51.980;4.464;2022-07-18T08:00:38;4.47;;;4.47;;
71183;SDS011;58887;51.980;4.464;2022-07-18T08:03:04;4.29;;;4.29;;
71183;SDS011;58887;51.980;4.464;2022-07-18T08:05:32;4.62;;;4.62;;
71183;SDS011;58887;51.980;4.464;2022-07-18T08:08:00;4.88;;;4.88;;
71183;SDS011;58887;51.980;4.464;2022-07-18T08:10:27;4.72;;;4.72;;
71183;SDS011;58887;51.980;4.464;2022-07-18T08:12:53;4.81;;;4.81;;
71183;SDS011;58887;51.980;4.464;2022-07-18T08:15:19;4.94;;;4.94;;
71183;SDS011;58887;51.980;4.464;2022-07-18T08:17:44;4.53;;;4.53;;
71183;SDS011;58887;51.980;4.464;2022-07-18T08:20:10;5.72;;;5.65;;
71183;SDS011;58887;51.980;4.464;2022-07-18T08:22:52;5.08;;;5.05;;
71183;SDS011;58887;51.980;4.464;2022-07-18T08:25:19;4.90;;;4.89;;
71183;SDS011;58887;51.980;4.464;2022-07-18T08:27:46;4.69;;;4.69;;
71183;SDS011;58887;51.980;4.464;2022-07-18T08:30:11;4.69;;;4.69;;
71183;SDS011;58887;51.980;4.464;2022-07-18T08:32:37;4.50;;;4.50;;
71183;SDS011;58887;51.980;4.464;2022-07-18T08:35:02;4.50;;;4.49;;
71183;SDS011;58887;51.980;4.464;2022-07-18T08:37:29;4.56;;;4.56;;
71183;SDS011;58887;51.980;4.464;2022-07-18T08:39:54;4.78;;;4.78;;
71183;SDS011;58887;51.980;4.464;2022-07-18T08:42:21;4.91;;;4.90;;
71183;SDS011;58887;51.980;4.464;2022-07-18T08:44:51;4.66;;;4.65;;
71183;SDS011;58887;51.980;4.464;2022-07-18T08:47:20;4.73;;;4.73;;
71183;SDS011;58887;51.980;4.464;2022-07-18T08:49:47;4.66;;;4.66;;
71183;SDS011;58887;51.980;4.464;2022-07-18T08:52:14;4.46;;;4.46;;
71183;SDS011;58887;51.980;4.464;2022-07-18T08:54:40;4.46;;;4.45;;
71183;SDS011;58887;51.980;4.464;2022-07-18T08:57:06;4.78;;;4.78;;
71183;SDS011;58887;51.980;4.464;2022-07-18T08:59:32;4.61;;;4.61;;
71183;SDS011;58887;51.980;4.464;2022-07-18T09:01:57;4.14;;;4.14;;
71183;SDS011;58887;51.980;4.464;2022-07-18T09:04:32;4.08;;;4.07;;
71183;SDS011;58887;51.980;4.464;2022-07-18T09:06:59;4.33;;;4.33;;
71183;SDS011;58887;51.980;4.464;2022-07-18T09:09:25;4.47;;;4.47;;
71183;SDS011;58887;51.980;4.464;2022-07-18T09:14:53;4.39;;;4.39;;
71183;SDS011;58887;51.980;4.464;2022-07-18T09:17:13;4.22;;;4.22;;
71183;SDS011;58887;51.980;4.464;2022-07-18T09:19:40;4.18;;;4.18;;
71183;SDS011;58887;51.980;4.464;2022-07-18T09:22:12;3.97;;;3.97;;
71183;SDS011;58887;51.980;4.464;2022-07-18T09:24:55;3.91;;;3.91;;
71183;SDS011;58887;51.980;4.464;2022-07-18T09:35:29;3.64;;;3.64;;
71183;SDS011;58887;51.980;4.464;2022-07-18T09:40:29;3.83;;;3.83;;
71183;SDS011;58887;51.980;4.464;2022-07-18T09:43:00;3.84;;;3.84;;
71183;SDS011;58887;51.980;4.464;2022-07-18T09:45:32;3.87;;;3.87;;
71183;SDS011;58887;51.980;4.464;2022-07-18T09:48:00;3.87;;;3.87;;
71183;SDS011;58887;51.980;4.464;2022-07-18T09:50:35;3.88;;;3.88;;
71183;SDS011;58887;51.980;4.464;2022-07-18T09:53:07;3.63;;;3.63;;
71183;SDS011;58887;51.980;4.464;2022-07-18T09:55:36;3.78;;;3.78;;
71183;SDS011;58887;51.980;4.464;2022-07-18T09:58:10;3.54;;;3.54;;
71183;SDS011;58887;51.980;4.464;2022-07-18T10:00:36;3.52;;;3.52;;
71183;SDS011;58887;51.980;4.464;2022-07-18T10:03:05;3.59;;;3.59;;
71183;SDS011;58887;51.980;4.464;2022-07-18T10:05:33;3.44;;;3.44;;
71183;SDS011;58887;51.980;4.464;2022-07-18T10:08:03;3.31;;;3.31;;
71183;SDS011;58887;51.980;4.464;2022-07-18T10:10:31;3.42;;;3.42;;
71183;SDS011;58887;51.980;4.464;2022-07-18T10:12:58;3.35;;;3.35;;
71183;SDS011;58887;51.980;4.464;2022-07-18T10:15:27;3.43;;;3.43;;
71183;SDS011;58887;51.980;4.464;2022-07-18T10:17:55;3.64;;;3.64;;
71183;SDS011;58887;51.980;4.464;2022-07-18T10:21:04;3.63;;;3.63;;
71183;SDS011;58887;51.980;4.464;2022-07-18T10:25:41;3.47;;;3.47;;
71183;SDS011;58887;51.980;4.464;2022-07-18T10:28:08;3.42;;;3.42;;
71183;SDS011;58887;51.980;4.464;2022-07-18T10:30:41;3.35;;;3.35;;
71183;SDS011;58887;51.980;4.464;2022-07-18T10:36:08;3.46;;;3.46;;
71183;SDS011;58887;51.980;4.464;2022-07-18T10:38:36;3.37;;;3.37;;
71183;SDS011;58887;51.980;4.464;2022-07-18T10:41:03;3.36;;;3.36;;
71183;SDS011;58887;51.980;4.464;2022-07-18T10:45:55;3.29;;;3.29;;
71183;SDS011;58887;51.980;4.464;2022-07-18T10:51:06;3.41;;;3.41;;
71183;SDS011;58887;51.980;4.464;2022-07-18T10:58:54;3.80;;;3.80;;
71183;SDS011;58887;51.980;4.464;2022-07-18T11:01:20;3.84;;;3.84;;
71183;SDS011;58887;51.980;4.464;2022-07-18T11:03:49;3.52;;;3.52;;
71183;SDS011;58887;51.980;4.464;2022-07-18T11:06:15;3.66;;;3.66;;
71183;SDS011;58887;51.980;4.464;2022-07-18T11:08:40;3.84;;;3.84;;
71183;SDS011;58887;51.980;4.464;2022-07-18T11:11:07;3.93;;;3.93;;
71183;SDS011;58887;51.980;4.464;2022-07-18T11:13:35;3.66;;;3.66;;
71183;SDS011;58887;51.980;4.464;2022-07-18T11:16:18;3.52;;;3.52;;
71183;SDS011;58887;51.980;4.464;2022-07-18T11:23:54;3.75;;;3.75;;
71183;SDS011;58887;51.980;4.464;2022-07-18T11:26:25;3.97;;;3.97;;
71183;SDS011;58887;51.980;4.464;2022-07-18T11:29:02;3.35;;;3.35;;
71183;SDS011;58887;51.980;4.464;2022-07-18T11:31:30;3.43;;;3.43;;
71183;SDS011;58887;51.980;4.464;2022-07-18T11:33:58;3.77;;;3.77;;
71183;SDS011;58887;51.980;4.464;2022-07-18T11:36:29;4.08;;;4.08;;
71183;SDS011;58887;51.980;4.464;2022-07-18T11:38:58;3.73;;;3.73;;
71183;SDS011;58887;51.980;4.464;2022-07-18T11:41:25;3.84;;;3.84;;
71183;SDS011;58887;51.980;4.464;2022-07-18T11:43:51;3.72;;;3.72;;
71183;SDS011;58887;51.980;4.464;2022-07-18T11:46:18;3.48;;;3.48;;
71183;SDS011;58887;51.980;4.464;2022-07-18T11:48:48;3.37;;;3.37;;
71183;SDS011;58887;51.980;4.464;2022-07-18T11:51:38;3.61;;;3.61;;
71183;SDS011;58887;51.980;4.464;2022-07-18T11:54:08;3.52;;;3.52;;
71183;SDS011;58887;51.980;4.464;2022-07-18T11:56:48;3.45;;;3.45;;
71183;SDS011;58887;51.980;4.464;2022-07-18T11:59:15;3.33;;;3.33;;
71183;SDS011;58887;51.980;4.464;2022-07-18T12:01:42;3.29;;;3.29;;
71183;SDS011;58887;51.980;4.464;2022-07-18T12:04:19;3.40;;;3.40;;
71183;SDS011;58887;51.980;4.464;2022-07-18T12:09:38;3.65;;;3.65;;
71183;SDS011;58887;51.980;4.464;2022-07-18T12:12:07;3.69;;;3.69;;
71183;SDS011;58887;51.980;4.464;2022-07-18T12:14:34;3.42;;;3.42;;
71183;SDS011;58887;51.980;4.464;2022-07-18T12:17:00;3.67;;;3.67;;
71183;SDS011;58887;51.980;4.464;2022-07-18T12:19:33;3.47;;;3.47;;
71183;SDS011;58887;51.980;4.464;2022-07-18T12:27:15;3.64;;;3.64;;
71183;SDS011;58887;51.980;4.464;2022-07-18T12:32:49;3.84;;;3.84;;
71183;SDS011;58887;51.980;4.464;2022-07-18T12:35:26;3.80;;;3.80;;
71183;SDS011;58887;51.980;4.464;2022-07-18T12:38:14;3.80;;;3.80;;
71183;SDS011;58887;51.980;4.464;2022-07-18T12:40:45;3.95;;;3.95;;
71183;SDS011;58887;51.980;4.464;2022-07-18T12:45:49;3.77;;;3.77;;
71183;SDS011;58887;51.980;4.464;2022-07-18T12:48:16;3.86;;;3.86;;
71183;SDS011;58887;51.980;4.464;2022-07-18T12:50:43;3.63;;;3.63;;
71183;SDS011;58887;51.980;4.464;2022-07-18T12:53:09;3.83;;;3.83;;
71183;SDS011;58887;51.980;4.464;2022-07-18T12:55:35;3.81;;;3.81;;
71183;SDS011;58887;51.980;4.464;2022-07-18T12:58:01;3.66;;;3.66;;
71183;SDS011;58887;51.980;4.464;2022-07-18T13:00:28;3.54;;;3.54;;
71183;SDS011;58887;51.980;4.464;2022-07-18T13:02:55;3.68;;;3.68;;
71183;SDS011;58887;51.980;4.464;2022-07-18T13:05:23;3.83;;;3.83;;
71183;SDS011;58887;51.980;4.464;2022-07-18T13:07:49;3.83;;;3.83;;
71183;SDS011;58887;51.980;4.464;2022-07-18T13:10:15;3.95;;;3.95;;
71183;SDS011;58887;51.980;4.464;2022-07-18T13:12:41;3.77;;;3.77;;
71183;SDS011;58887;51.980;4.464;2022-07-18T13:15:07;3.81;;;3.81;;
71183;SDS011;58887;51.980;4.464;2022-07-18T13:17:32;3.51;;;3.51;;
71183;SDS011;58887;51.980;4.464;2022-07-18T13:19:58;4.10;;;4.10;;
71183;SDS011;58887;51.980;4.464;2022-07-18T13:22:23;3.50;;;3.50;;
71183;SDS011;58887;51.980;4.464;2022-07-18T13:24:49;3.95;;;3.95;;
71183;SDS011;58887;51.980;4.464;2022-07-18T13:27:14;3.92;;;3.92;;
71183;SDS011;58887;51.980;4.464;2022-07-18T13:29:40;3.89;;;3.89;;
71183;SDS011;58887;51.980;4.464;2022-07-18T13:32:06;4.03;;;4.03;;
71183;SDS011;58887;51.980;4.464;2022-07-18T13:34:31;3.97;;;3.97;;
71183;SDS011;58887;51.980;4.464;2022-07-18T13:36:57;4.45;;;4.45;;
71183;SDS011;58887;51.980;4.464;2022-07-18T13:39:22;4.03;;;4.03;;
71183;SDS011;58887;51.980;4.464;2022-07-18T13:41:51;3.75;;;3.75;;
71183;SDS011;58887;51.980;4.464;2022-07-18T13:44:17;3.69;;;3.69;;
71183;SDS011;58887;51.980;4.464;2022-07-18T13:46:42;3.73;;;3.73;;
71183;SDS011;58887;51.980;4.464;2022-07-18T13:49:09;3.74;;;3.74;;
71183;SDS011;58887;51.980;4.464;2022-07-18T13:51:35;3.69;;;3.69;;
71183;SDS011;58887;51.980;4.464;2022-07-18T13:54:02;3.59;;;3.59;;
71183;SDS011;58887;51.980;4.464;2022-07-18T13:56:29;3.97;;;3.97;;
71183;SDS011;58887;51.980;4.464;2022-07-18T13:58:54;3.59;;;3.59;;
71183;SDS011;58887;51.980;4.464;2022-07-18T14:01:20;3.91;;;3.91;;
71183;SDS011;58887;51.980;4.464;2022-07-18T14:03:45;3.77;;;3.77;;
71183;SDS011;58887;51.980;4.464;2022-07-18T14:06:11;3.55;;;3.55;;
71183;SDS011;58887;51.980;4.464;2022-07-18T14:08:36;3.51;;;3.51;;
71183;SDS011;58887;51.980;4.464;2022-07-18T14:11:02;3.62;;;3.62;;
71183;SDS011;58887;51.980;4.464;2022-07-18T14:13:28;3.28;;;3.28;;
71183;SDS011;58887;51.980;4.464;2022-07-18T14:15:53;3.52;;;3.52;;
71183;SDS011;58887;51.980;4.464;2022-07-18T14:18:19;3.41;;;3.41;;
71183;SDS011;58887;51.980;4.464;2022-07-18T14:20:44;3.50;;;3.50;;
71183;SDS011;58887;51.980;4.464;2022-07-18T14:23:10;3.15;;;3.15;;
71183;SDS011;58887;51.980;4.464;2022-07-18T14:25:35;3.36;;;3.36;;
71183;SDS011;58887;51.980;4.464;2022-07-18T14:28:01;3.19;;;3.19;;
71183;SDS011;58887;51.980;4.464;2022-07-18T14:30:26;3.29;;;3.29;;
71183;SDS011;58887;51.980;4.464;2022-07-18T14:32:52;3.30;;;3.30;;
71183;SDS011;58887;51.980;4.464;2022-07-18T14:35:17;3.12;;;3.12;;
71183;SDS011;58887;51.980;4.464;2022-07-18T14:37:43;3.22;;;3.22;;
71183;SDS011;58887;51.980;4.464;2022-07-18T14:40:08;3.35;;;3.35;;
71183;SDS011;58887;51.980;4.464;2022-07-18T14:42:34;3.53;;;3.53;;
71183;SDS011;58887;51.980;4.464;2022-07-18T14:45:00;3.20;;;3.20;;
71183;SDS011;58887;51.980;4.464;2022-07-18T14:47:27;3.36;;;3.36;;
71183;SDS011;58887;51.980;4.464;2022-07-18T14:49:53;3.36;;;3.36;;
71183;SDS011;58887;51.980;4.464;2022-07-18T14:52:18;3.17;;;3.17;;
71183;SDS011;58887;51.980;4.464;2022-07-18T14:54:44;3.21;;;3.21;;
71183;SDS011;58887;51.980;4.464;2022-07-18T14:57:09;3.19;;;3.19;;
71183;SDS011;58887;51.980;4.464;2022-07-18T14:59:35;2.96;;;2.96;;
71183;SDS011;58887;51.980;4.464;2022-07-18T15:02:01;3.09;;;3.09;;
71183;SDS011;58887;51.980;4.464;2022-07-18T15:04:31;3.36;;;3.36;;
71183;SDS011;58887;51.980;4.464;2022-07-18T15:06:58;3.10;;;3.10;;
71183;SDS011;58887;51.980;4.464;2022-07-18T15:09:23;2.99;;;2.99;;
71183;SDS011;58887;51.980;4.464;2022-07-18T15:11:49;3.27;;;3.27;;
71183;SDS011;58887;51.980;4.464;2022-07-18T15:14:15;3.21;;;3.21;;
71183;SDS011;58887;51.980;4.464;2022-07-18T15:16:40;3.17;;;3.17;;
71183;SDS011;58887;51.980;4.464;2022-07-18T15:19:05;3.31;;;3.31;;
71183;SDS011;58887;51.980;4.464;2022-07-18T15:21:31;3.29;;;3.29;;
71183;SDS011;58887;51.980;4.464;2022-07-18T15:23:57;2.99;;;2.99;;
71183;SDS011;58887;51.980;4.464;2022-07-18T15:26:23;3.00;;;3.00;;
71183;SDS011;58887;51.980;4.464;2022-07-18T15:28:49;3.26;;;3.26;;
71183;SDS011;58887;51.980;4.464;2022-07-18T15:31:16;3.15;;;3.15;;
71183;SDS011;58887;51.980;4.464;2022-07-18T15:33:41;3.16;;;3.16;;